sensor_id;sensor_type;location;lat;lon;timestamp;temperature;humidity
35647;DHT22;28680;45.642;13.756;2023-09-19T00:00:16;24.00;99.90
35647;DHT22;28680;45.642;13.756;2023-09-19T00:02:52;24.00;99.90
35647;DHT22;28680;45.642;13.756;2023-09-19T00:05:18;24.00;99.90
35647;DHT22;28680;45.642;13.756;2023-09-19T00:07:43;24.00;99.90
35647;DHT22;28680;45.642;13.756;2023-09-19T00:10:10;24.00;99.90
35647;DHT22;28680;45.642;13.756;2023-09-19T00:12:36;24.00;99.90
35647;DHT22;28680;45.642;13.756;2023-09-19T00:15:02;24.00;99.90
35647;DHT22;28680;45.642;13.756;2023-09-19T00:17:28;24.00;99.90
35647;DHT22;28680;45.642;13.756;2023-09-19T00:19:57;24.00;99.90
35647;DHT22;28680;45.642;13.756;2023-09-19T00:22:23;24.00;99.90
35647;DHT22;28680;45.642;13.756;2023-09-19T00:24:51;24.00;99.90
35647;DHT22;28680;45.642;13.756;2023-09-19T00:27:18;24.00;99.90
35647;DHT22;28680;45.642;13.756;2023-09-19T00:29:44;23.90;99.90
35647;DHT22;28680;45.642;13.756;2023-09-19T00:32:10;24.00;99.90
35647;DHT22;28680;45.642;13.756;2023-09-19T00:34:35;23.90;99.90
35647;DHT22;28680;45.642;13.756;2023-09-19T00:37:01;24.00;99.90
35647;DHT22;28680;45.642;13.756;2023-09-19T00:39:27;24.00;99.90
35647;DHT22;28680;45.642;13.756;2023-09-19T00:41:57;24.00;99.90
35647;DHT22;28680;45.642;13.756;2023-09-19T00:44:23;24.00;99.90
35647;DHT22;28680;45.642;13.756;2023-09-19T00:46:50;24.00;99.90
35647;DHT22;28680;45.642;13.756;2023-09-19T00:49:16;24.00;99.90
35647;DHT22;28680;45.642;13.756;2023-09-19T00:51:43;24.00;99.90
35647;DHT22;28680;45.642;13.756;2023-09-19T00:54:13;23.90;99.90
35647;DHT22;28680;45.642;13.756;2023-09-19T00:56:44;23.90;99.90
35647;DHT22;28680;45.642;13.756;2023-09-19T00:59:10;23.90;99.90
35647;DHT22;28680;45.642;13.756;2023-09-19T01:01:37;24.00;99.90
35647;DHT22;28680;45.642;13.756;2023-09-19T01:04:06;23.90;99.90
35647;DHT22;28680;45.642;13.756;2023-09-19T01:06:32;24.00;99.90
35647;DHT22;28680;45.642;13.756;2023-09-19T01:08:58;24.00;99.90
35647;DHT22;28680;45.642;13.756;2023-09-19T01:11:28;24.00;99.90
35647;DHT22;28680;45.642;13.756;2023-09-19T01:14:06;24.00;99.90
35647;DHT22;28680;45.642;13.756;2023-09-19T01:16:43;24.00;99.90
35647;DHT22;28680;45.642;13.756;2023-09-19T01:31:07;24.10;99.90
35647;DHT22;28680;45.642;13.756;2023-09-19T01:34:01;24.00;99.90
35647;DHT22;28680;45.642;13.756;2023-09-19T01:36:34;24.10;99.90
35647;DHT22;28680;45.642;13.756;2023-09-19T01:39:04;24.10;99.90
35647;DHT22;28680;45.642;13.756;2023-09-19T01:44:06;24.00;99.90
35647;DHT22;28680;45.642;13.756;2023-09-19T01:46:39;24.00;99.90
35647;DHT22;28680;45.642;13.756;2023-09-19T01:49:22;24.00;99.90
35647;DHT22;28680;45.642;13.756;2023-09-19T01:52:00;23.90;99.90
35647;DHT22;28680;45.642;13.756;2023-09-19T01:54:33;24.00;99.90
35647;DHT22;28680;45.642;13.756;2023-09-19T01:57:20;24.00;99.90
35647;DHT22;28680;45.642;13.756;2023-09-19T01:59:55;23.90;99.90
35647;DHT22;28680;45.642;13.756;2023-09-19T02:02:23;24.10;99.90
35647;DHT22;28680;45.642;13.756;2023-09-19T02:05:02;24.30;99.90
35647;DHT22;28680;45.642;13.756;2023-09-19T02:07:29;24.40;99.90
35647;DHT22;28680;45.642;13.756;2023-09-19T02:09:58;24.40;99.90
35647;DHT22;28680;45.642;13.756;2023-09-19T02:12:26;24.40;99.90
35647;DHT22;28680;45.642;13.756;2023-09-19T02:14:52;24.40;99.90
35647;DHT22;28680;45.642;13.756;2023-09-19T02:17:17;24.40;99.90
35647;DHT22;28680;45.642;13.756;2023-09-19T02:19:43;24.40;99.90
35647;DHT22;28680;45.642;13.756;2023-09-19T02:22:09;24.40;99.90
35647;DHT22;28680;45.642;13.756;2023-09-19T02:24:37;24.40;99.90
35647;DHT22;28680;45.642;13.756;2023-09-19T02:27:04;24.40;99.90
35647;DHT22;28680;45.642;13.756;2023-09-19T02:29:31;24.40;99.90
35647;DHT22;28680;45.642;13.756;2023-09-19T02:32:00;24.40;99.90
35647;DHT22;28680;45.642;13.756;2023-09-19T02:34:27;24.40;99.90
35647;DHT22;28680;45.642;13.756;2023-09-19T02:36:53;24.40;99.90
35647;DHT22;28680;45.642;13.756;2023-09-19T02:39:20;24.40;99.90
35647;DHT22;28680;45.642;13.756;2023-09-19T02:41:46;24.40;99.90
35647;DHT22;28680;45.642;13.756;2023-09-19T02:44:12;24.40;99.90
35647;DHT22;28680;45.642;13.756;2023-09-19T02:46:38;24.40;99.90
35647;DHT22;28680;45.642;13.756;2023-09-19T02:49:21;24.30;99.90
35647;DHT22;28680;45.642;13.756;2023-09-19T02:51:47;24.30;99.90
35647;DHT22;28680;45.642;13.756;2023-09-19T02:54:16;24.30;99.90
35647;DHT22;28680;45.642;13.756;2023-09-19T02:56:42;24.40;99.90
35647;DHT22;28680;45.642;13.756;2023-09-19T02:59:11;24.30;99.90
35647;DHT22;28680;45.642;13.756;2023-09-19T03:02:16;24.30;99.90
35647;DHT22;28680;45.642;13.756;2023-09-19T03:04:41;24.00;99.90
35647;DHT22;28680;45.642;13.756;2023-09-19T03:07:10;24.30;99.90
35647;DHT22;28680;45.642;13.756;2023-09-19T03:09:37;24.30;99.90
35647;DHT22;28680;45.642;13.756;2023-09-19T03:12:03;24.20;99.90
35647;DHT22;28680;45.642;13.756;2023-09-19T03:14:30;24.20;99.90
35647;DHT22;28680;45.642;13.756;2023-09-19T03:17:07;24.20;99.90
35647;DHT22;28680;45.642;13.756;2023-09-19T03:19:41;24.20;99.90
35647;DHT22;28680;45.642;13.756;2023-09-19T03:22:07;24.20;99.90
35647;DHT22;28680;45.642;13.756;2023-09-19T03:24:56;24.20;99.90
35647;DHT22;28680;45.642;13.756;2023-09-19T03:27:22;24.20;99.90
35647;DHT22;28680;45.642;13.756;2023-09-19T03:29:48;24.30;99.90
35647;DHT22;28680;45.642;13.756;2023-09-19T03:32:15;24.20;99.90
35647;DHT22;28680;45.642;13.756;2023-09-19T03:34:44;24.20;99.90
35647;DHT22;28680;45.642;13.756;2023-09-19T03:37:11;24.10;99.90
35647;DHT22;28680;45.642;13.756;2023-09-19T03:39:43;24.00;99.90
35647;DHT22;28680;45.642;13.756;2023-09-19T03:42:09;23.90;99.90
35647;DHT22;28680;45.642;13.756;2023-09-19T03:44:35;23.80;99.90
35647;DHT22;28680;45.642;13.756;2023-09-19T03:47:04;23.80;99.90
35647;DHT22;28680;45.642;13.756;2023-09-19T03:49:31;23.80;99.90
35647;DHT22;28680;45.642;13.756;2023-09-19T03:51:57;23.70;99.90
35647;DHT22;28680;45.642;13.756;2023-09-19T03:54:23;23.80;99.90
35647;DHT22;28680;45.642;13.756;2023-09-19T03:56:48;23.80;99.90
35647;DHT22;28680;45.642;13.756;2023-09-19T03:59:15;23.80;99.90
35647;DHT22;28680;45.642;13.756;2023-09-19T04:01:41;23.80;99.90
35647;DHT22;28680;45.642;13.756;2023-09-19T04:04:08;23.90;99.90
35647;DHT22;28680;45.642;13.756;2023-09-19T04:06:35;23.80;99.90
35647;DHT22;28680;45.642;13.756;2023-09-19T04:09:02;23.90;99.90
35647;DHT22;28680;45.642;13.756;2023-09-19T04:11:29;23.90;99.90
35647;DHT22;28680;45.642;13.756;2023-09-19T04:13:56;23.80;99.90
35647;DHT22;28680;45.642;13.756;2023-09-19T04:16:25;23.90;99.90
35647;DHT22;28680;45.642;13.756;2023-09-19T04:22:41;23.90;99.90
35647;DHT22;28680;45.642;13.756;2023-09-19T04:25:07;24.00;99.90
35647;DHT22;28680;45.642;13.756;2023-09-19T04:27:33;23.90;99.90
35647;DHT22;28680;45.642;13.756;2023-09-19T04:30:00;23.90;99.90
35647;DHT22;28680;45.642;13.756;2023-09-19T04:32:28;23.90;99.90
35647;DHT22;28680;45.642;13.756;2023-09-19T04:34:54;23.90;99.90
35647;DHT22;28680;45.642;13.756;2023-09-19T04:37:20;23.80;99.90
35647;DHT22;28680;45.642;13.756;2023-09-19T04:39:47;23.80;99.90
35647;DHT22;28680;45.642;13.756;2023-09-19T04:42:13;23.80;99.90
35647;DHT22;28680;45.642;13.756;2023-09-19T04:44:44;23.70;99.90
35647;DHT22;28680;45.642;13.756;2023-09-19T04:47:10;23.70;99.90
35647;DHT22;28680;45.642;13.756;2023-09-19T04:49:37;23.70;99.90
35647;DHT22;28680;45.642;13.756;2023-09-19T04:52:03;23.70;99.90
35647;DHT22;28680;45.642;13.756;2023-09-19T04:54:29;23.80;99.90
35647;DHT22;28680;45.642;13.756;2023-09-19T04:57:04;23.60;99.90
35647;DHT22;28680;45.642;13.756;2023-09-19T04:59:31;23.60;99.90
35647;DHT22;28680;45.642;13.756;2023-09-19T05:01:57;23.60;99.90
35647;DHT22;28680;45.642;13.756;2023-09-19T05:04:22;23.60;99.90
35647;DHT22;28680;45.642;13.756;2023-09-19T05:06:48;23.60;99.90
35647;DHT22;28680;45.642;13.756;2023-09-19T05:09:14;23.60;99.90
35647;DHT22;28680;45.642;13.756;2023-09-19T05:11:56;23.60;99.90
35647;DHT22;28680;45.642;13.756;2023-09-19T05:18:39;23.60;99.90
35647;DHT22;28680;45.642;13.756;2023-09-19T05:21:05;23.60;99.90
35647;DHT22;28680;45.642;13.756;2023-09-19T05:23:31;23.60;99.90
35647;DHT22;28680;45.642;13.756;2023-09-19T05:25:57;23.60;99.90
35647;DHT22;28680;45.642;13.756;2023-09-19T05:28:25;23.60;99.90
35647;DHT22;28680;45.642;13.756;2023-09-19T05:30:52;23.60;99.90
35647;DHT22;28680;45.642;13.756;2023-09-19T05:33:19;23.60;99.90
35647;DHT22;28680;45.642;13.756;2023-09-19T05:35:45;23.60;99.90
35647;DHT22;28680;45.642;13.756;2023-09-19T05:38:13;23.60;99.90
35647;DHT22;28680;45.642;13.756;2023-09-19T05:40:40;23.60;99.90
35647;DHT22;28680;45.642;13.756;2023-09-19T05:43:08;23.60;99.90
35647;DHT22;28680;45.642;13.756;2023-09-19T05:45:34;23.60;99.90
35647;DHT22;28680;45.642;13.756;2023-09-19T05:48:12;23.60;99.90
35647;DHT22;28680;45.642;13.756;2023-09-19T05:50:41;23.60;99.90
35647;DHT22;28680;45.642;13.756;2023-09-19T05:53:08;23.60;99.90
35647;DHT22;28680;45.642;13.756;2023-09-19T05:55:37;23.60;99.90
35647;DHT22;28680;45.642;13.756;2023-09-19T05:58:03;23.50;99.90
35647;DHT22;28680;45.642;13.756;2023-09-19T06:00:32;23.60;99.90
35647;DHT22;28680;45.642;13.756;2023-09-19T06:27:43;23.90;99.90
35647;DHT22;28680;45.642;13.756;2023-09-19T06:38:04;24.00;99.90
35647;DHT22;28680;45.642;13.756;2023-09-19T06:40:31;24.10;99.90
35647;DHT22;28680;45.642;13.756;2023-09-19T06:42:57;24.30;99.90
35647;DHT22;28680;45.642;13.756;2023-09-19T06:45:23;24.40;99.90
35647;DHT22;28680;45.642;13.756;2023-09-19T06:47:52;24.40;99.90
35647;DHT22;28680;45.642;13.756;2023-09-19T06:50:20;24.40;99.90
35647;DHT22;28680;45.642;13.756;2023-09-19T06:52:49;24.50;99.90
35647;DHT22;28680;45.642;13.756;2023-09-19T06:55:36;24.60;99.90
35647;DHT22;28680;45.642;13.756;2023-09-19T06:58:02;24.80;99.90
35647;DHT22;28680;45.642;13.756;2023-09-19T07:00:28;24.90;99.90
35647;DHT22;28680;45.642;13.756;2023-09-19T07:06:10;25.00;99.90
35647;DHT22;28680;45.642;13.756;2023-09-19T07:08:48;25.20;99.90
35647;DHT22;28680;45.642;13.756;2023-09-19T07:11:41;25.10;99.90
35647;DHT22;28680;45.642;13.756;2023-09-19T07:14:22;25.20;99.90
35647;DHT22;28680;45.642;13.756;2023-09-19T07:20:09;25.50;99.90
35647;DHT22;28680;45.642;13.756;2023-09-19T07:25:28;25.70;99.90
35647;DHT22;28680;45.642;13.756;2023-09-19T07:28:42;25.80;99.90
35647;DHT22;28680;45.642;13.756;2023-09-19T07:31:08;26.00;99.90
35647;DHT22;28680;45.642;13.756;2023-09-19T07:33:36;26.20;99.90
35647;DHT22;28680;45.642;13.756;2023-09-19T07:39:27;26.30;99.90
35647;DHT22;28680;45.642;13.756;2023-09-19T07:41:53;26.50;99.90
35647;DHT22;28680;45.642;13.756;2023-09-19T07:44:19;26.70;99.90
35647;DHT22;28680;45.642;13.756;2023-09-19T07:46:45;26.90;99.90
35647;DHT22;28680;45.642;13.756;2023-09-19T07:49:12;26.90;99.90
35647;DHT22;28680;45.642;13.756;2023-09-19T07:51:37;27.20;99.90
35647;DHT22;28680;45.642;13.756;2023-09-19T07:54:04;27.40;99.90
35647;DHT22;28680;45.642;13.756;2023-09-19T07:56:30;27.10;99.90
35647;DHT22;28680;45.642;13.756;2023-09-19T07:58:56;26.70;99.90
35647;DHT22;28680;45.642;13.756;2023-09-19T08:01:24;26.70;99.90
35647;DHT22;28680;45.642;13.756;2023-09-19T08:03:52;26.70;99.90
35647;DHT22;28680;45.642;13.756;2023-09-19T08:06:18;26.60;99.90
35647;DHT22;28680;45.642;13.756;2023-09-19T08:08:46;26.50;99.90
35647;DHT22;28680;45.642;13.756;2023-09-19T08:11:11;26.50;99.90
35647;DHT22;28680;45.642;13.756;2023-09-19T08:13:39;26.50;99.90
35647;DHT22;28680;45.642;13.756;2023-09-19T08:16:09;26.50;99.90
35647;DHT22;28680;45.642;13.756;2023-09-19T08:18:37;26.60;99.90
35647;DHT22;28680;45.642;13.756;2023-09-19T08:21:07;26.70;99.90
35647;DHT22;28680;45.642;13.756;2023-09-19T08:23:39;26.50;99.90
35647;DHT22;28680;45.642;13.756;2023-09-19T08:26:05;26.50;99.90
35647;DHT22;28680;45.642;13.756;2023-09-19T08:28:35;26.70;99.90
35647;DHT22;28680;45.642;13.756;2023-09-19T08:39:08;27.70;99.90
35647;DHT22;28680;45.642;13.756;2023-09-19T08:41:34;27.50;99.90
35647;DHT22;28680;45.642;13.756;2023-09-19T08:44:26;27.60;99.90
35647;DHT22;28680;45.642;13.756;2023-09-19T08:47:26;27.00;99.90
35647;DHT22;28680;45.642;13.756;2023-09-19T08:52:30;27.40;99.90
35647;DHT22;28680;45.642;13.756;2023-09-19T08:55:02;27.90;99.90
35647;DHT22;28680;45.642;13.756;2023-09-19T08:57:33;28.30;99.90
35647;DHT22;28680;45.642;13.756;2023-09-19T09:00:06;28.40;99.90
35647;DHT22;28680;45.642;13.756;2023-09-19T09:02:40;28.60;99.90
35647;DHT22;28680;45.642;13.756;2023-09-19T09:05:15;29.00;99.90
35647;DHT22;28680;45.642;13.756;2023-09-19T09:07:42;29.20;99.90
35647;DHT22;28680;45.642;13.756;2023-09-19T09:10:09;29.30;99.90
35647;DHT22;28680;45.642;13.756;2023-09-19T09:12:35;29.20;99.90
35647;DHT22;28680;45.642;13.756;2023-09-19T09:15:03;29.30;99.90
35647;DHT22;28680;45.642;13.756;2023-09-19T09:17:30;29.70;99.90
35647;DHT22;28680;45.642;13.756;2023-09-19T09:19:56;29.40;99.90
35647;DHT22;28680;45.642;13.756;2023-09-19T09:22:23;29.60;99.90
35647;DHT22;28680;45.642;13.756;2023-09-19T09:24:54;29.60;99.90
35647;DHT22;28680;45.642;13.756;2023-09-19T09:27:23;29.60;99.90
35647;DHT22;28680;45.642;13.756;2023-09-19T09:29:51;29.20;99.90
35647;DHT22;28680;45.642;13.756;2023-09-19T09:32:22;29.20;99.90
35647;DHT22;28680;45.642;13.756;2023-09-19T09:34:55;30.20;99.90
35647;DHT22;28680;45.642;13.756;2023-09-19T09:37:21;30.30;99.90
35647;DHT22;28680;45.642;13.756;2023-09-19T09:42:36;29.80;99.90
35647;DHT22;28680;45.642;13.756;2023-09-19T09:45:12;29.00;99.90
35647;DHT22;28680;45.642;13.756;2023-09-19T09:47:46;28.30;99.90
35647;DHT22;28680;45.642;13.756;2023-09-19T09:50:30;27.70;99.90
35647;DHT22;28680;45.642;13.756;2023-09-19T09:53:26;27.40;99.90
35647;DHT22;28680;45.642;13.756;2023-09-19T09:56:08;27.30;99.90
35647;DHT22;28680;45.642;13.756;2023-09-19T09:58:49;27.30;99.90
35647;DHT22;28680;45.642;13.756;2023-09-19T10:01:17;27.40;99.90
35647;DHT22;28680;45.642;13.756;2023-09-19T10:03:43;27.30;99.90
35647;DHT22;28680;45.642;13.756;2023-09-19T10:06:16;27.50;99.90
35647;DHT22;28680;45.642;13.756;2023-09-19T10:11:29;27.90;99.90
35647;DHT22;28680;45.642;13.756;2023-09-19T10:13:57;27.80;99.90
35647;DHT22;28680;45.642;13.756;2023-09-19T10:16:30;27.60;99.90
35647;DHT22;28680;45.642;13.756;2023-09-19T10:19:02;27.20;99.90
35647;DHT22;28680;45.642;13.756;2023-09-19T10:21:28;27.10;99.90
35647;DHT22;28680;45.642;13.756;2023-09-19T10:23:58;27.00;99.90
35647;DHT22;28680;45.642;13.756;2023-09-19T10:26:27;27.00;99.90
35647;DHT22;28680;45.642;13.756;2023-09-19T10:28:57;27.00;99.90
35647;DHT22;28680;45.642;13.756;2023-09-19T10:31:29;26.50;99.90
35647;DHT22;28680;45.642;13.756;2023-09-19T10:34:03;26.80;99.90
35647;DHT22;28680;45.642;13.756;2023-09-19T10:36:33;26.80;99.90
35647;DHT22;28680;45.642;13.756;2023-09-19T10:39:02;26.80;99.90
35647;DHT22;28680;45.642;13.756;2023-09-19T10:41:32;26.70;99.90
35647;DHT22;28680;45.642;13.756;2023-09-19T10:44:04;26.80;99.90
35647;DHT22;28680;45.642;13.756;2023-09-19T10:46:35;26.90;99.90
35647;DHT22;28680;45.642;13.756;2023-09-19T10:49:02;26.90;99.90
35647;DHT22;28680;45.642;13.756;2023-09-19T10:51:41;26.70;99.90
35647;DHT22;28680;45.642;13.756;2023-09-19T10:54:12;27.00;99.90
35647;DHT22;28680;45.642;13.756;2023-09-19T10:56:49;27.30;99.90
35647;DHT22;28680;45.642;13.756;2023-09-19T10:59:21;27.70;99.90
35647;DHT22;28680;45.642;13.756;2023-09-19T11:01:49;28.30;99.90
35647;DHT22;28680;45.642;13.756;2023-09-19T11:07:13;28.20;99.90
35647;DHT22;28680;45.642;13.756;2023-09-19T11:15:02;29.50;99.90
35647;DHT22;28680;45.642;13.756;2023-09-19T11:17:34;28.20;99.90
35647;DHT22;28680;45.642;13.756;2023-09-19T11:31:50;29.90;99.90
35647;DHT22;28680;45.642;13.756;2023-09-19T11:39:40;30.10;99.90
35647;DHT22;28680;45.642;13.756;2023-09-19T11:42:46;29.60;99.90
35647;DHT22;28680;45.642;13.756;2023-09-19T11:48:23;30.50;99.90
35647;DHT22;28680;45.642;13.756;2023-09-19T11:50:51;30.00;99.90
35647;DHT22;28680;45.642;13.756;2023-09-19T11:53:18;30.10;99.90
35647;DHT22;28680;45.642;13.756;2023-09-19T11:55:45;30.20;99.90
35647;DHT22;28680;45.642;13.756;2023-09-19T11:58:18;30.40;99.90
35647;DHT22;28680;45.642;13.756;2023-09-19T12:00:45;30.50;99.90
35647;DHT22;28680;45.642;13.756;2023-09-19T12:03:12;31.00;99.90
35647;DHT22;28680;45.642;13.756;2023-09-19T12:05:40;31.40;99.90
35647;DHT22;28680;45.642;13.756;2023-09-19T12:08:07;31.80;99.90
35647;DHT22;28680;45.642;13.756;2023-09-19T12:10:48;31.60;99.90
35647;DHT22;28680;45.642;13.756;2023-09-19T12:13:20;32.00;99.90
35647;DHT22;28680;45.642;13.756;2023-09-19T12:15:47;31.90;99.90
35647;DHT22;28680;45.642;13.756;2023-09-19T12:20:58;31.70;99.90
35647;DHT22;28680;45.642;13.756;2023-09-19T12:23:24;31.70;99.90
35647;DHT22;28680;45.642;13.756;2023-09-19T12:25:54;32.30;99.90
35647;DHT22;28680;45.642;13.756;2023-09-19T12:28:37;32.50;99.90
35647;DHT22;28680;45.642;13.756;2023-09-19T12:35:44;33.70;99.90
35647;DHT22;28680;45.642;13.756;2023-09-19T12:38:10;31.60;99.90
35647;DHT22;28680;45.642;13.756;2023-09-19T12:40:43;32.30;99.90
35647;DHT22;28680;45.642;13.756;2023-09-19T12:46:57;33.20;99.90
35647;DHT22;28680;45.642;13.756;2023-09-19T12:52:45;32.90;99.90
35647;DHT22;28680;45.642;13.756;2023-09-19T12:55:28;32.20;99.90
35647;DHT22;28680;45.642;13.756;2023-09-19T12:58:12;31.50;99.90
35647;DHT22;28680;45.642;13.756;2023-09-19T13:00:40;31.60;99.90
35647;DHT22;28680;45.642;13.756;2023-09-19T13:12:34;31.80;99.90
35647;DHT22;28680;45.642;13.756;2023-09-19T13:28:33;33.70;99.90
35647;DHT22;28680;45.642;13.756;2023-09-19T13:30:59;33.80;99.90
35647;DHT22;28680;45.642;13.756;2023-09-19T13:33:26;34.10;99.90
35647;DHT22;28680;45.642;13.756;2023-09-19T13:35:52;34.30;99.90
35647;DHT22;28680;45.642;13.756;2023-09-19T13:38:20;34.50;99.90
35647;DHT22;28680;45.642;13.756;2023-09-19T13:40:48;34.80;99.90
35647;DHT22;28680;45.642;13.756;2023-09-19T13:43:14;35.20;99.90
35647;DHT22;28680;45.642;13.756;2023-09-19T13:45:40;35.40;99.90
35647;DHT22;28680;45.642;13.756;2023-09-19T13:48:15;35.30;99.90
35647;DHT22;28680;45.642;13.756;2023-09-19T13:50:51;35.60;99.90
35647;DHT22;28680;45.642;13.756;2023-09-19T13:53:18;35.60;99.90
35647;DHT22;28680;45.642;13.756;2023-09-19T13:59:15;33.10;99.90
35647;DHT22;28680;45.642;13.756;2023-09-19T14:01:40;32.50;99.90
35647;DHT22;28680;45.642;13.756;2023-09-19T14:04:07;32.30;99.90
35647;DHT22;28680;45.642;13.756;2023-09-19T14:06:36;31.70;99.90
35647;DHT22;28680;45.642;13.756;2023-09-19T14:09:03;31.00;99.90
35647;DHT22;28680;45.642;13.756;2023-09-19T14:11:29;30.70;99.90
35647;DHT22;28680;45.642;13.756;2023-09-19T14:13:55;30.00;99.90
35647;DHT22;28680;45.642;13.756;2023-09-19T14:16:21;30.20;99.90
35647;DHT22;28680;45.642;13.756;2023-09-19T14:18:49;29.90;99.90
35647;DHT22;28680;45.642;13.756;2023-09-19T14:21:15;30.00;99.90
35647;DHT22;28680;45.642;13.756;2023-09-19T14:23:41;30.30;99.90
35647;DHT22;28680;45.642;13.756;2023-09-19T14:26:14;30.10;99.90
35647;DHT22;28680;45.642;13.756;2023-09-19T14:28:41;29.70;99.90
35647;DHT22;28680;45.642;13.756;2023-09-19T14:31:10;29.40;99.90
35647;DHT22;28680;45.642;13.756;2023-09-19T14:34:16;29.80;99.90
35647;DHT22;28680;45.642;13.756;2023-09-19T14:36:42;29.70;99.90
35647;DHT22;28680;45.642;13.756;2023-09-19T14:39:08;29.40;99.90
35647;DHT22;28680;45.642;13.756;2023-09-19T14:41:34;29.70;99.90
35647;DHT22;28680;45.642;13.756;2023-09-19T14:44:03;30.30;99.90
35647;DHT22;28680;45.642;13.756;2023-09-19T14:46:29;30.10;99.90
35647;DHT22;28680;45.642;13.756;2023-09-19T14:48:56;29.70;99.90
35647;DHT22;28680;45.642;13.756;2023-09-19T14:51:25;29.60;99.90
35647;DHT22;28680;45.642;13.756;2023-09-19T14:53:54;29.80;99.90
35647;DHT22;28680;45.642;13.756;2023-09-19T14:56:21;29.50;99.90
35647;DHT22;28680;45.642;13.756;2023-09-19T14:58:51;29.80;99.90
35647;DHT22;28680;45.642;13.756;2023-09-19T15:01:17;29.70;99.90
35647;DHT22;28680;45.642;13.756;2023-09-19T15:03:43;29.60;99.90
35647;DHT22;28680;45.642;13.756;2023-09-19T15:06:10;30.00;99.90
35647;DHT22;28680;45.642;13.756;2023-09-19T15:08:49;29.80;99.90
35647;DHT22;28680;45.642;13.756;2023-09-19T15:11:19;29.50;99.90
35647;DHT22;28680;45.642;13.756;2023-09-19T15:13:50;29.80;99.90
35647;DHT22;28680;45.642;13.756;2023-09-19T15:16:16;29.80;99.90
35647;DHT22;28680;45.642;13.756;2023-09-19T15:18:43;30.40;99.90
35647;DHT22;28680;45.642;13.756;2023-09-19T15:21:11;30.90;99.90
35647;DHT22;28680;45.642;13.756;2023-09-19T15:23:38;31.20;99.90
35647;DHT22;28680;45.642;13.756;2023-09-19T15:26:11;31.20;99.90
35647;DHT22;28680;45.642;13.756;2023-09-19T15:28:38;31.10;99.90
35647;DHT22;28680;45.642;13.756;2023-09-19T15:31:05;30.50;99.90
35647;DHT22;28680;45.642;13.756;2023-09-19T15:33:35;30.10;99.90
35647;DHT22;28680;45.642;13.756;2023-09-19T15:36:16;29.90;99.90
35647;DHT22;28680;45.642;13.756;2023-09-19T15:39:07;30.10;99.90
35647;DHT22;28680;45.642;13.756;2023-09-19T15:42:07;30.10;99.90
35647;DHT22;28680;45.642;13.756;2023-09-19T15:44:50;29.70;99.90
35647;DHT22;28680;45.642;13.756;2023-09-19T15:47:29;29.80;99.90
35647;DHT22;28680;45.642;13.756;2023-09-19T15:49:56;29.70;99.90
35647;DHT22;28680;45.642;13.756;2023-09-19T15:52:22;29.70;99.90
35647;DHT22;28680;45.642;13.756;2023-09-19T15:54:51;29.80;99.90
35647;DHT22;28680;45.642;13.756;2023-09-19T15:57:17;29.80;99.90
35647;DHT22;28680;45.642;13.756;2023-09-19T15:59:43;29.80;99.90
35647;DHT22;28680;45.642;13.756;2023-09-19T16:02:10;29.80;99.90
35647;DHT22;28680;45.642;13.756;2023-09-19T16:04:36;29.80;99.90
35647;DHT22;28680;45.642;13.756;2023-09-19T16:07:22;29.50;99.90
35647;DHT22;28680;45.642;13.756;2023-09-19T16:09:49;29.30;99.90
35647;DHT22;28680;45.642;13.756;2023-09-19T16:12:14;29.20;99.90
35647;DHT22;28680;45.642;13.756;2023-09-19T16:14:40;29.30;99.90
35647;DHT22;28680;45.642;13.756;2023-09-19T16:17:06;29.50;99.90
35647;DHT22;28680;45.642;13.756;2023-09-19T16:19:37;29.60;99.90
35647;DHT22;28680;45.642;13.756;2023-09-19T16:22:03;29.40;99.90
35647;DHT22;28680;45.642;13.756;2023-09-19T16:24:29;29.50;99.90
35647;DHT22;28680;45.642;13.756;2023-09-19T16:26:55;29.20;99.90
35647;DHT22;28680;45.642;13.756;2023-09-19T16:29:21;28.80;99.90
35647;DHT22;28680;45.642;13.756;2023-09-19T16:31:49;28.50;99.90
35647;DHT22;28680;45.642;13.756;2023-09-19T16:34:15;28.70;99.90
35647;DHT22;28680;45.642;13.756;2023-09-19T16:36:41;29.10;99.90
35647;DHT22;28680;45.642;13.756;2023-09-19T16:39:07;29.40;99.90
35647;DHT22;28680;45.642;13.756;2023-09-19T16:41:50;29.30;99.90
35647;DHT22;28680;45.642;13.756;2023-09-19T16:44:29;29.10;99.90
35647;DHT22;28680;45.642;13.756;2023-09-19T16:46:58;29.00;99.90
35647;DHT22;28680;45.642;13.756;2023-09-19T16:49:24;29.00;99.90
35647;DHT22;28680;45.642;13.756;2023-09-19T16:51:50;28.40;99.90
35647;DHT22;28680;45.642;13.756;2023-09-19T16:54:16;28.30;99.90
35647;DHT22;28680;45.642;13.756;2023-09-19T16:56:42;28.50;99.90
35647;DHT22;28680;45.642;13.756;2023-09-19T16:59:07;28.80;99.90
35647;DHT22;28680;45.642;13.756;2023-09-19T17:01:35;29.00;99.90
35647;DHT22;28680;45.642;13.756;2023-09-19T17:04:01;28.70;99.90
35647;DHT22;28680;45.642;13.756;2023-09-19T17:06:34;28.50;99.90
35647;DHT22;28680;45.642;13.756;2023-09-19T17:08:59;28.50;99.90
35647;DHT22;28680;45.642;13.756;2023-09-19T17:11:25;28.80;99.90
35647;DHT22;28680;45.642;13.756;2023-09-19T17:14:27;29.00;99.90
35647;DHT22;28680;45.642;13.756;2023-09-19T17:20:44;29.00;99.90
35647;DHT22;28680;45.642;13.756;2023-09-19T17:23:10;29.00;99.90
35647;DHT22;28680;45.642;13.756;2023-09-19T17:25:36;29.10;99.90
35647;DHT22;28680;45.642;13.756;2023-09-19T17:28:03;29.10;99.90
35647;DHT22;28680;45.642;13.756;2023-09-19T17:30:31;29.20;99.90
35647;DHT22;28680;45.642;13.756;2023-09-19T17:33:06;29.10;99.90
35647;DHT22;28680;45.642;13.756;2023-09-19T17:43:23;27.20;99.90
35647;DHT22;28680;45.642;13.756;2023-09-19T17:45:49;27.00;99.90
35647;DHT22;28680;45.642;13.756;2023-09-19T17:48:15;26.80;99.90
35647;DHT22;28680;45.642;13.756;2023-09-19T17:50:40;26.50;99.90
35647;DHT22;28680;45.642;13.756;2023-09-19T17:53:07;26.50;99.90
35647;DHT22;28680;45.642;13.756;2023-09-19T17:55:37;26.60;99.90
35647;DHT22;28680;45.642;13.756;2023-09-19T17:58:03;26.80;99.90
35647;DHT22;28680;45.642;13.756;2023-09-19T18:00:29;26.90;99.90
35647;DHT22;28680;45.642;13.756;2023-09-19T18:02:54;26.90;99.90
35647;DHT22;28680;45.642;13.756;2023-09-19T18:05:20;26.70;99.90
35647;DHT22;28680;45.642;13.756;2023-09-19T18:07:46;26.60;99.90
35647;DHT22;28680;45.642;13.756;2023-09-19T18:13:11;26.70;99.90
35647;DHT22;28680;45.642;13.756;2023-09-19T18:15:38;26.70;99.90
35647;DHT22;28680;45.642;13.756;2023-09-19T18:18:05;26.50;99.90